createdAt,value
2018-05-09T00:00:00.292Z,0.00
2018-05-09T00:01:00.368Z,0.00
2018-05-09T00:02:00.392Z,0.00
2018-05-09T00:03:00.432Z,0.00
2018-05-09T00:04:00.482Z,0.00
2018-05-09T00:05:00.534Z,0.00
2018-05-09T00:06:00.621Z,0.00
2018-05-09T00:07:00.641Z,0.00
2018-05-09T00:08:00.677Z,0.00
2018-05-09T00:09:00.726Z,0.00
2018-05-09T00:10:00.781Z,0.00
2018-05-09T00:11:00.845Z,0.00
2018-05-09T00:12:00.955Z,0.00
2018-05-09T00:13:00.926Z,0.00
2018-05-09T00:14:00.971Z,0.00
2018-05-09T00:15:01.018Z,0.00
2018-05-09T00:16:01.067Z,0.00
2018-05-09T00:17:01.150Z,0.00
2018-05-09T00:18:01.168Z,0.00
2018-05-09T00:19:01.217Z,0.00
2018-05-09T00:20:01.263Z,0.00
2018-05-09T00:21:01.311Z,0.00
2018-05-09T00:22:01.404Z,0.00
2018-05-09T00:23:01.411Z,0.00
2018-05-09T00:24:01.459Z,0.00
2018-05-09T00:25:01.511Z,0.00
2018-05-09T00:26:01.560Z,0.00
2018-05-09T00:27:01.648Z,0.00
2018-05-09T00:28:01.653Z,0.00
2018-05-09T00:29:01.704Z,0.00
2018-05-09T00:30:01.753Z,0.00
2018-05-09T00:31:01.807Z,0.00
2018-05-09T00:32:01.872Z,0.00
2018-05-09T00:33:01.898Z,0.00
2018-05-09T00:34:01.950Z,0.00
2018-05-09T00:35:01.996Z,0.00
2018-05-09T00:36:02.066Z,0.00
2018-05-09T00:37:02.131Z,0.00
2018-05-09T00:38:02.146Z,0.00
2018-05-09T00:39:02.192Z,0.00
2018-05-09T00:40:02.239Z,0.00
2018-05-09T00:41:02.288Z,0.00
2018-05-09T00:42:02.362Z,0.00
2018-05-09T00:43:02.422Z,0.00
2018-05-09T00:44:02.436Z,0.00
2018-05-09T00:45:02.490Z,0.00
2018-05-09T00:46:02.533Z,0.00
2018-05-09T00:47:02.582Z,0.00
2018-05-09T00:48:02.662Z,0.00
2018-05-09T00:49:02.678Z,0.00
2018-05-09T00:50:02.752Z,0.00
2018-05-09T00:51:02.776Z,0.00
2018-05-09T00:52:02.825Z,0.00
2018-05-09T00:53:02.911Z,0.00
2018-05-09T00:54:02.921Z,0.00
2018-05-09T00:55:02.978Z,0.00
2018-05-09T00:56:03.017Z,0.00
2018-05-09T00:57:03.070Z,0.00
2018-05-09T00:58:03.146Z,0.00
2018-05-09T00:59:03.187Z,0.00
2018-05-09T01:00:03.214Z,0.00
2018-05-09T01:01:03.261Z,0.00
2018-05-09T01:02:03.311Z,0.00
2018-05-09T01:03:03.389Z,0.00
2018-05-09T01:04:03.406Z,0.00
2018-05-09T01:05:03.460Z,0.00
2018-05-09T01:06:03.508Z,0.00
2018-05-09T01:07:03.554Z,0.00
2018-05-09T01:08:03.625Z,0.00
2018-05-09T01:09:03.650Z,0.00
2018-05-09T01:10:03.730Z,0.00
2018-05-09T01:11:03.747Z,0.00
2018-05-09T01:12:03.795Z,0.00
2018-05-09T01:13:03.848Z,0.00
2018-05-09T01:14:03.936Z,0.00
2018-05-09T01:15:03.942Z,0.00
2018-05-09T01:16:03.993Z,0.00
2018-05-09T01:17:04.043Z,0.00
2018-05-09T01:18:04.086Z,0.00
2018-05-09T01:19:04.160Z,0.00
2018-05-09T01:20:04.211Z,0.00
2018-05-09T01:21:04.232Z,0.00
2018-05-09T01:22:04.283Z,0.00
2018-05-09T01:23:04.330Z,0.00
2018-05-09T01:24:04.377Z,0.00
2018-05-09T01:25:04.449Z,0.00
2018-05-09T01:26:04.473Z,0.00
2018-05-09T01:27:04.522Z,0.00
2018-05-09T01:28:04.577Z,0.00
2018-05-09T01:29:04.620Z,0.00
2018-05-09T01:30:04.691Z,0.00
2018-05-09T01:31:04.715Z,0.00
2018-05-09T01:32:04.766Z,0.00
2018-05-09T01:33:04.813Z,0.00
2018-05-09T01:34:05.371Z,0.00
2018-05-09T01:35:04.931Z,0.00
2018-05-09T01:36:04.957Z,0.00
2018-05-09T01:37:05.005Z,0.00
2018-05-09T01:38:05.056Z,0.00
2018-05-09T01:39:05.102Z,0.00
2018-05-09T01:40:05.194Z,0.00
2018-05-09T01:41:05.199Z,0.00
2018-05-09T01:42:05.248Z,0.00
2018-05-09T01:43:05.294Z,0.00
2018-05-09T01:44:05.343Z,0.00
2018-05-09T01:45:05.416Z,0.00
2018-05-09T01:46:05.442Z,0.00
2018-05-09T01:47:05.517Z,0.00
2018-05-09T01:48:05.537Z,0.00
2018-05-09T01:49:05.585Z,0.00
2018-05-09T01:50:05.636Z,0.00
2018-05-09T01:51:05.686Z,0.00
2018-05-09T01:52:05.753Z,0.00
2018-05-09T01:53:05.779Z,0.00
2018-05-09T01:54:05.831Z,0.00
2018-05-09T01:55:06.355Z,0.00
2018-05-09T01:56:05.923Z,0.00
2018-05-09T01:57:06.009Z,0.00
2018-05-09T01:58:06.019Z,0.00
2018-05-09T01:59:06.071Z,0.00
2018-05-09T02:00:06.116Z,0.00
2018-05-09T02:01:06.164Z,0.00
2018-05-09T02:02:06.239Z,0.00
2018-05-09T02:03:06.262Z,0.00
2018-05-09T02:04:06.312Z,0.00
2018-05-09T02:05:06.358Z,0.00
2018-05-09T02:06:06.424Z,0.00
2018-05-09T02:07:06.477Z,0.00
2018-05-09T02:08:06.525Z,0.00
2018-05-09T02:09:06.552Z,0.00
2018-05-09T02:10:06.598Z,0.00
2018-05-09T02:11:06.651Z,0.00
2018-05-09T02:12:06.693Z,0.00
2018-05-09T02:13:06.789Z,0.00
2018-05-09T02:14:06.792Z,0.00
2018-05-09T02:15:06.840Z,0.00
2018-05-09T02:16:06.887Z,0.00
2018-05-09T02:17:06.934Z,0.00
2018-05-09T02:18:07.009Z,0.00
2018-05-09T02:19:07.059Z,0.00
2018-05-09T02:20:07.084Z,0.00
2018-05-09T02:21:07.127Z,0.00
2018-05-09T02:22:07.175Z,0.00
2018-05-09T02:23:07.223Z,0.00
2018-05-09T02:24:07.334Z,0.00
2018-05-09T02:25:07.857Z,0.00
2018-05-09T02:26:07.373Z,0.00
2018-05-09T02:27:07.415Z,0.00
2018-05-09T02:28:07.463Z,0.00
2018-05-09T02:29:07.539Z,0.00
2018-05-09T02:30:07.559Z,0.00
2018-05-09T02:31:07.705Z,0.00
2018-05-09T02:32:07.656Z,0.00
2018-05-09T02:33:07.712Z,0.00
2018-05-09T02:34:07.778Z,0.00
2018-05-09T02:35:07.799Z,0.00
2018-05-09T02:36:07.846Z,0.00
2018-05-09T02:37:07.894Z,0.00
2018-05-09T02:38:07.945Z,0.00
2018-05-09T02:39:08.017Z,0.00
2018-05-09T02:40:08.040Z,0.00
2018-05-09T02:41:08.087Z,0.00
2018-05-09T02:42:08.135Z,0.00
2018-05-09T02:43:08.181Z,0.00
2018-05-09T02:44:08.264Z,0.00
2018-05-09T02:45:08.303Z,0.00
2018-05-09T02:46:08.328Z,0.00
2018-05-09T02:47:08.375Z,0.00
2018-05-09T02:48:08.432Z,0.00
2018-05-09T02:49:08.498Z,0.00
2018-05-09T02:50:08.551Z,0.00
2018-05-09T02:51:08.565Z,0.00
2018-05-09T02:52:08.615Z,0.00
2018-05-09T02:53:08.664Z,0.00
2018-05-09T02:54:08.713Z,0.00
2018-05-09T02:55:08.782Z,0.00
2018-05-09T02:56:08.833Z,0.00
2018-05-09T02:57:09.332Z,0.00
2018-05-09T02:58:08.901Z,0.00
2018-05-09T02:59:08.950Z,0.00
2018-05-09T03:00:08.998Z,0.00
2018-05-09T03:01:09.071Z,0.00
2018-05-09T03:02:09.095Z,0.00
2018-05-09T03:03:09.142Z,0.00
2018-05-09T03:04:09.190Z,0.00
2018-05-09T03:05:09.239Z,0.00
2018-05-09T03:06:09.318Z,0.00
2018-05-09T03:07:09.331Z,0.00
2018-05-09T03:08:09.379Z,0.00
2018-05-09T03:09:09.427Z,0.00
2018-05-09T03:10:09.474Z,0.00
2018-05-09T03:11:09.557Z,0.00
2018-05-09T03:12:09.570Z,0.00
2018-05-09T03:13:09.619Z,0.00
2018-05-09T03:14:09.664Z,0.00
2018-05-09T03:15:09.713Z,0.00
2018-05-09T03:16:09.802Z,0.00
2018-05-09T03:17:09.808Z,0.00
2018-05-09T03:18:09.863Z,0.00
2018-05-09T03:19:09.904Z,0.00
2018-05-09T03:20:09.952Z,0.00
2018-05-09T03:21:10.026Z,0.00
2018-05-09T03:22:10.071Z,0.00
2018-05-09T03:23:10.093Z,0.00
2018-05-09T03:24:10.145Z,0.00
2018-05-09T03:25:10.189Z,0.00
2018-05-09T03:26:10.236Z,0.00
2018-05-09T03:27:10.311Z,0.00
2018-05-09T03:28:10.331Z,0.00
2018-05-09T03:29:10.379Z,0.00
2018-05-09T03:30:10.429Z,0.00
2018-05-09T03:31:10.475Z,0.00
2018-05-09T03:32:10.547Z,0.00
2018-05-09T03:33:10.574Z,0.00
2018-05-09T03:34:10.617Z,0.00
2018-05-09T03:35:10.664Z,0.00
2018-05-09T03:36:10.716Z,0.00
2018-05-09T03:37:10.783Z,0.00
2018-05-09T03:38:10.832Z,0.00
2018-05-09T03:39:10.855Z,0.00
2018-05-09T03:40:10.906Z,0.00
2018-05-09T03:41:10.957Z,0.00
2018-05-09T03:42:11.001Z,0.00
2018-05-09T03:43:11.069Z,0.00
2018-05-09T03:44:11.093Z,0.00
2018-05-09T03:45:11.143Z,0.00
2018-05-09T03:46:11.191Z,0.00
2018-05-09T03:47:11.236Z,0.00
2018-05-09T03:48:11.324Z,5.63
2018-05-09T03:49:11.330Z,5.63
2018-05-09T03:50:11.382Z,5.63
2018-05-09T03:51:11.427Z,5.63
2018-05-09T03:52:11.473Z,5.63
2018-05-09T03:53:11.619Z,5.63
2018-05-09T03:54:11.569Z,5.63
2018-05-09T03:55:11.615Z,5.63
2018-05-09T03:56:11.663Z,11.25
2018-05-09T03:57:11.713Z,11.25
2018-05-09T03:58:11.782Z,11.25
2018-05-09T03:59:11.839Z,11.25
2018-05-09T04:00:11.855Z,11.25
2018-05-09T04:01:11.904Z,11.25
2018-05-09T04:02:11.952Z,16.88
2018-05-09T04:03:11.999Z,16.88
2018-05-09T04:04:12.083Z,16.88
2018-05-09T04:05:12.132Z,16.88
2018-05-09T04:06:12.143Z,22.50
2018-05-09T04:07:12.191Z,22.50
2018-05-09T04:08:12.235Z,22.50
2018-05-09T04:09:12.311Z,22.50
2018-05-09T04:10:12.353Z,22.50
2018-05-09T04:11:12.377Z,28.13
2018-05-09T04:12:12.422Z,28.13
2018-05-09T04:13:12.483Z,28.13
2018-05-09T04:14:12.518Z,28.13
2018-05-09T04:15:12.591Z,33.75
2018-05-09T04:16:12.612Z,33.75
2018-05-09T04:17:12.663Z,33.75
2018-05-09T04:18:12.712Z,33.75
2018-05-09T04:19:12.754Z,39.38
2018-05-09T04:20:12.830Z,39.38
2018-05-09T04:21:12.851Z,39.38
2018-05-09T04:22:12.898Z,39.38
2018-05-09T04:23:12.946Z,45.00
2018-05-09T04:24:12.992Z,45.00
2018-05-09T04:25:13.063Z,45.00
2018-05-09T04:26:13.114Z,45.00
2018-05-09T04:27:13.133Z,50.63
2018-05-09T04:28:13.196Z,50.63
2018-05-09T04:29:13.232Z,50.63
2018-05-09T04:30:13.280Z,50.63
2018-05-09T04:31:13.352Z,56.25
2018-05-09T04:32:13.372Z,56.25
2018-05-09T04:33:13.423Z,56.25
2018-05-09T04:34:13.466Z,61.88
2018-05-09T04:35:15.370Z,61.88
2018-05-09T04:36:13.653Z,61.88
2018-05-09T04:37:13.612Z,61.88
2018-05-09T04:38:13.657Z,67.50
2018-05-09T04:39:13.703Z,67.50
2018-05-09T04:40:13.752Z,67.50
2018-05-09T04:41:13.831Z,67.50
2018-05-09T04:42:13.846Z,73.13
2018-05-09T04:43:13.894Z,73.13
2018-05-09T04:44:13.941Z,73.13
2018-05-09T04:45:13.988Z,73.13
2018-05-09T04:46:14.076Z,73.13
2018-05-09T04:47:14.082Z,78.75
2018-05-09T04:48:14.135Z,78.75
2018-05-09T04:49:14.249Z,78.75
2018-05-09T04:50:14.230Z,78.75
2018-05-09T04:51:14.294Z,78.75
2018-05-09T04:52:14.344Z,78.75
2018-05-09T04:53:14.369Z,78.75
2018-05-09T04:54:14.415Z,84.38
2018-05-09T04:55:14.462Z,84.38
2018-05-09T04:56:14.511Z,84.38
2018-05-09T04:57:14.582Z,84.38
2018-05-09T04:58:14.617Z,84.38
2018-05-09T04:59:14.651Z,84.38
2018-05-09T05:00:14.699Z,84.38
2018-05-09T05:01:14.746Z,84.38
2018-05-09T05:02:14.825Z,84.38
2018-05-09T05:03:14.846Z,84.38
2018-05-09T05:04:14.894Z,84.38
2018-05-09T05:05:14.939Z,84.38
2018-05-09T05:06:14.984Z,90.00
2018-05-09T05:07:15.075Z,90.00
2018-05-09T05:08:15.080Z,90.00
2018-05-09T05:09:15.127Z,90.00
2018-05-09T05:10:15.177Z,90.00
2018-05-09T05:11:15.224Z,90.00
2018-05-09T05:12:15.324Z,95.63
2018-05-09T05:13:15.319Z,95.63
2018-05-09T05:14:15.367Z,101.25
2018-05-09T05:15:15.416Z,101.25
2018-05-09T05:16:15.467Z,106.88
2018-05-09T05:17:15.532Z,112.50
2018-05-09T05:18:15.598Z,112.50
2018-05-09T05:19:15.605Z,118.13
2018-05-09T05:20:15.653Z,118.13
2018-05-09T05:21:15.701Z,123.75
2018-05-09T05:22:15.750Z,123.75
2018-05-09T05:23:15.835Z,123.75
2018-05-09T05:24:15.844Z,129.38
2018-05-09T05:25:15.893Z,135.00
2018-05-09T05:26:15.944Z,140.63
2018-05-09T05:27:15.987Z,140.63
2018-05-09T05:28:16.069Z,146.25
2018-05-09T05:29:16.085Z,157.50
2018-05-09T05:30:16.131Z,163.13
2018-05-09T05:31:16.186Z,168.75
2018-05-09T05:32:16.226Z,174.38
2018-05-09T05:33:16.302Z,185.63
2018-05-09T05:34:16.350Z,185.63
2018-05-09T05:35:16.437Z,191.25
2018-05-09T05:36:16.418Z,191.25
2018-05-09T05:37:16.467Z,191.25
2018-05-09T05:38:16.515Z,191.25
2018-05-09T05:39:16.603Z,191.25
2018-05-09T05:40:16.613Z,191.25
2018-05-09T05:41:16.659Z,196.88
2018-05-09T05:42:16.708Z,196.88
2018-05-09T05:43:16.757Z,196.88
2018-05-09T05:44:16.837Z,196.88
2018-05-09T05:45:16.868Z,196.88
2018-05-09T05:46:16.903Z,202.50
2018-05-09T05:47:16.949Z,202.50
2018-05-09T05:48:16.997Z,202.50
2018-05-09T05:49:17.070Z,202.50
2018-05-09T05:50:17.149Z,202.50
2018-05-09T05:51:17.144Z,202.50
2018-05-09T05:52:17.192Z,208.13
2018-05-09T05:53:17.244Z,208.13
2018-05-09T05:54:17.289Z,208.13
2018-05-09T05:55:17.379Z,208.13
2018-05-09T05:56:17.386Z,202.50
2018-05-09T05:57:17.436Z,202.50
2018-05-09T05:58:17.487Z,208.13
2018-05-09T05:59:17.531Z,202.50
2018-05-09T06:00:17.612Z,196.88
2018-05-09T06:01:17.631Z,196.88
2018-05-09T06:02:17.681Z,196.88
2018-05-09T06:03:17.729Z,196.88
2018-05-09T06:04:17.775Z,196.88
2018-05-09T06:05:17.860Z,196.88
2018-05-09T06:06:17.895Z,202.50
2018-05-09T06:07:17.941Z,202.50
2018-05-09T06:08:17.976Z,202.50
2018-05-09T06:09:18.021Z,202.50
2018-05-09T06:10:18.106Z,202.50
2018-05-09T06:11:18.119Z,202.50
2018-05-09T06:12:18.171Z,202.50
2018-05-09T06:13:18.219Z,202.50
2018-05-09T06:14:18.268Z,202.50
2018-05-09T06:15:18.347Z,202.50
2018-05-09T06:16:18.364Z,202.50
2018-05-09T06:17:18.432Z,202.50
2018-05-09T06:18:18.468Z,213.75
2018-05-09T06:19:18.513Z,208.13
2018-05-09T06:20:18.590Z,208.13
2018-05-09T06:21:18.612Z,208.13
2018-05-09T06:22:18.662Z,213.75
2018-05-09T06:23:18.713Z,213.75
2018-05-09T06:24:18.867Z,213.75
2018-05-09T06:25:18.848Z,213.75
2018-05-09T06:26:18.857Z,219.38
2018-05-09T06:27:18.906Z,219.38
2018-05-09T06:28:18.956Z,219.38
2018-05-09T06:29:19.004Z,225.00
2018-05-09T06:30:19.078Z,225.00
2018-05-09T06:31:19.105Z,230.63
2018-05-09T06:32:19.174Z,438.75
2018-05-09T06:33:19.205Z,663.75
2018-05-09T06:34:19.257Z,680.63
2018-05-09T06:35:19.300Z,686.25
2018-05-09T06:36:19.349Z,703.13
2018-05-09T06:37:19.423Z,714.38
2018-05-09T06:38:19.451Z,725.63
2018-05-09T06:39:19.507Z,736.88
2018-05-09T06:40:19.548Z,742.50
2018-05-09T06:41:19.642Z,753.75
2018-05-09T06:42:19.654Z,759.38
2018-05-09T06:43:19.751Z,770.63
2018-05-09T06:44:19.745Z,781.88
2018-05-09T06:45:19.851Z,793.13
2018-05-09T06:46:19.877Z,793.13
2018-05-09T06:47:19.922Z,804.38
2018-05-09T06:48:19.945Z,826.88
2018-05-09T06:49:19.995Z,843.75
2018-05-09T06:50:20.044Z,855.00
2018-05-09T06:51:20.125Z,871.88
2018-05-09T06:52:20.144Z,888.75
2018-05-09T06:53:20.197Z,900.00
2018-05-09T06:54:20.246Z,922.50
2018-05-09T06:55:20.304Z,933.75
2018-05-09T06:56:20.371Z,950.63
2018-05-09T06:57:20.396Z,973.13
2018-05-09T06:58:20.470Z,990.00
2018-05-09T06:59:20.495Z,1012.50
2018-05-09T07:00:20.547Z,1023.75
2018-05-09T07:01:20.596Z,1040.63
2018-05-09T07:02:20.672Z,1063.13
2018-05-09T07:03:20.723Z,1074.38
2018-05-09T07:04:20.751Z,1085.63
2018-05-09T07:05:20.801Z,1102.50
2018-05-09T07:06:20.865Z,1113.75
2018-05-09T07:07:20.900Z,1119.38
2018-05-09T07:08:20.981Z,1141.88
2018-05-09T07:09:21.002Z,1158.75
2018-05-09T07:10:21.057Z,1164.38
2018-05-09T07:11:21.106Z,1186.88
2018-05-09T07:12:21.184Z,1203.75
2018-05-09T07:13:21.214Z,1215.00
2018-05-09T07:14:21.284Z,1226.25
2018-05-09T07:15:21.312Z,1220.63
2018-05-09T07:16:21.367Z,1237.50
2018-05-09T07:17:21.415Z,1248.75
2018-05-09T07:18:21.490Z,1260.00
2018-05-09T07:19:21.525Z,1271.25
2018-05-09T07:20:21.569Z,1276.88
2018-05-09T07:21:21.625Z,1293.75
2018-05-09T07:22:21.674Z,1293.75
2018-05-09T07:23:21.748Z,1305.00
2018-05-09T07:24:21.781Z,1310.63
2018-05-09T07:25:21.833Z,1310.63
2018-05-09T07:26:21.906Z,1321.88
2018-05-09T07:27:21.932Z,1327.50
2018-05-09T07:28:22.006Z,1338.75
2018-05-09T07:29:22.040Z,1338.75
2018-05-09T07:30:22.087Z,1350.00
2018-05-09T07:31:22.138Z,1361.25
2018-05-09T07:32:22.215Z,1383.75
2018-05-09T07:33:22.271Z,1411.88
2018-05-09T07:34:22.295Z,1434.38
2018-05-09T07:35:22.429Z,1451.25
2018-05-09T07:36:22.398Z,1473.75
2018-05-09T07:37:22.448Z,1485.00
2018-05-09T07:38:22.543Z,1490.63
2018-05-09T07:39:22.554Z,1507.50
2018-05-09T07:40:22.604Z,1524.38
2018-05-09T07:41:22.656Z,1530.00
2018-05-09T07:42:22.706Z,1546.88
2018-05-09T07:43:22.781Z,1563.75
2018-05-09T07:44:22.885Z,1591.88
2018-05-09T07:45:22.860Z,1597.50
2018-05-09T07:46:22.913Z,1614.38
2018-05-09T07:47:22.967Z,1636.88
2018-05-09T07:48:23.038Z,1653.75
2018-05-09T07:49:23.087Z,1659.38
2018-05-09T07:50:23.120Z,1693.13
2018-05-09T07:51:23.167Z,1710.00
2018-05-09T07:52:23.222Z,1743.75
2018-05-09T07:53:23.302Z,1771.88
2018-05-09T07:54:23.349Z,1794.38
2018-05-09T07:55:23.373Z,1811.25
2018-05-09T07:56:23.427Z,1833.75
2018-05-09T07:57:23.478Z,1839.38
2018-05-09T07:58:23.532Z,1845.00
2018-05-09T07:59:23.606Z,1845.00
2018-05-09T08:00:23.636Z,1845.00
2018-05-09T08:01:23.686Z,1856.25
2018-05-09T08:02:23.739Z,1861.88
2018-05-09T08:03:23.790Z,1878.75
2018-05-09T08:04:23.866Z,1890.00
2018-05-09T08:05:23.896Z,1906.88
2018-05-09T08:06:23.946Z,1940.63
2018-05-09T08:07:24.000Z,1980.00
2018-05-09T08:08:24.051Z,2030.63
2018-05-09T08:09:24.128Z,2053.13
2018-05-09T08:10:24.179Z,2070.00
2018-05-09T08:11:24.209Z,2109.38
2018-05-09T08:12:24.261Z,2143.13
2018-05-09T08:13:24.312Z,2154.38
2018-05-09T08:14:24.372Z,2193.75
2018-05-09T08:15:24.440Z,2210.63
2018-05-09T08:16:24.467Z,2244.38
2018-05-09T08:17:24.522Z,2295.00
2018-05-09T08:18:24.574Z,2351.25
2018-05-09T08:19:24.629Z,2401.88
2018-05-09T08:20:24.701Z,2424.38
2018-05-09T08:21:24.735Z,2435.63
2018-05-09T08:22:24.786Z,2480.63
2018-05-09T08:23:24.835Z,2520.00
2018-05-09T08:24:24.890Z,2548.13
2018-05-09T08:25:24.968Z,2570.63
2018-05-09T08:26:24.998Z,2587.50
2018-05-09T08:27:25.048Z,2604.38
2018-05-09T08:28:25.100Z,2598.75
2018-05-09T08:29:25.152Z,2604.38
2018-05-09T08:30:25.286Z,2576.25
2018-05-09T08:31:25.265Z,2553.75
2018-05-09T08:32:25.310Z,2559.38
2018-05-09T08:33:25.362Z,2548.13
2018-05-09T08:34:25.415Z,2565.00
2018-05-09T08:35:25.491Z,2604.38
2018-05-09T08:36:25.545Z,2615.63
2018-05-09T08:37:25.577Z,2621.25
2018-05-09T08:38:25.631Z,2604.38
2018-05-09T08:39:25.689Z,2610.00
2018-05-09T08:40:25.730Z,2593.13
2018-05-09T08:41:25.819Z,2587.50
2018-05-09T08:42:25.836Z,2565.00
2018-05-09T08:43:25.973Z,2536.88
2018-05-09T08:44:25.943Z,2514.38
2018-05-09T08:45:25.998Z,2497.50
2018-05-09T08:46:26.073Z,2486.25
2018-05-09T08:47:26.100Z,2486.25
2018-05-09T08:48:26.176Z,2503.13
2018-05-09T08:49:26.282Z,2520.00
2018-05-09T08:50:26.259Z,2520.00
2018-05-09T08:51:26.309Z,2525.63
2018-05-09T08:52:26.389Z,2531.25
2018-05-09T08:53:26.427Z,2520.00
2018-05-09T08:54:26.472Z,2525.63
2018-05-09T08:55:26.605Z,2514.38
2018-05-09T08:56:26.576Z,2520.00
2018-05-09T08:57:26.662Z,2520.00
2018-05-09T08:58:26.685Z,2520.00
2018-05-09T08:59:26.739Z,2486.25
2018-05-09T09:00:26.789Z,2413.13
2018-05-09T09:01:26.840Z,2345.63
2018-05-09T09:02:26.927Z,2255.63
2018-05-09T09:03:26.946Z,2165.63
2018-05-09T09:04:27.030Z,2070.00
2018-05-09T09:05:27.058Z,1980.00
2018-05-09T09:06:27.189Z,1912.50
2018-05-09T09:07:27.187Z,1850.63
2018-05-09T09:08:27.241Z,1783.13
2018-05-09T09:09:27.265Z,1743.75
2018-05-09T09:10:27.319Z,1687.50
2018-05-09T09:11:27.374Z,1659.38
2018-05-09T09:12:27.424Z,1614.38
2018-05-09T09:13:27.501Z,1580.63
2018-05-09T09:14:27.534Z,1524.38
2018-05-09T09:15:27.613Z,1496.25
2018-05-09T09:16:27.638Z,1445.63
2018-05-09T09:17:27.691Z,1423.13
2018-05-09T09:18:27.774Z,1406.25
2018-05-09T09:19:27.801Z,1378.13
2018-05-09T09:20:27.852Z,1378.13
2018-05-09T09:21:27.909Z,1355.63
2018-05-09T09:22:27.962Z,1361.25
2018-05-09T09:23:28.044Z,1344.38
2018-05-09T09:24:28.066Z,1350.00
2018-05-09T09:25:28.130Z,1350.00
2018-05-09T09:26:28.179Z,1350.00
2018-05-09T09:27:28.227Z,1361.25
2018-05-09T09:28:28.304Z,1372.50
2018-05-09T09:29:28.357Z,1372.50
2018-05-09T09:30:28.394Z,1378.13
2018-05-09T09:31:28.440Z,1389.38
2018-05-09T09:32:28.495Z,1400.63
2018-05-09T09:33:28.548Z,1428.75
2018-05-09T09:34:28.627Z,1468.13
2018-05-09T09:35:28.654Z,1530.00
2018-05-09T09:36:28.708Z,1614.38
2018-05-09T09:37:28.764Z,1698.75
2018-05-09T09:38:28.818Z,1456.88
2018-05-09T09:39:28.911Z,1468.13
2018-05-09T09:40:28.925Z,1929.38
2018-05-09T09:41:29.026Z,1417.50
2018-05-09T09:42:29.031Z,1985.63
2018-05-09T09:43:29.087Z,1192.50
2018-05-09T09:44:29.166Z,1181.25
2018-05-09T09:45:29.218Z,1265.63
2018-05-09T09:46:29.246Z,1085.63
2018-05-09T09:47:29.299Z,990.00
2018-05-09T09:48:29.356Z,1018.13
2018-05-09T09:49:29.407Z,1040.63
2018-05-09T09:50:29.484Z,1091.25
2018-05-09T09:51:29.514Z,1209.38
2018-05-09T09:52:29.567Z,1271.25
2018-05-09T09:53:29.628Z,1546.88
2018-05-09T09:54:29.671Z,1141.88
2018-05-09T09:55:29.752Z,1220.63
2018-05-09T09:56:29.780Z,1231.88
2018-05-09T09:57:29.834Z,2188.13
2018-05-09T09:58:29.883Z,1395.00
2018-05-09T09:59:29.942Z,2036.25
2018-05-09T10:00:30.022Z,2559.38
2018-05-09T10:01:30.061Z,1991.25
2018-05-09T10:02:30.096Z,2311.88
2018-05-09T10:03:30.151Z,2278.13
2018-05-09T10:04:30.200Z,2221.88
2018-05-09T10:05:30.281Z,2244.38
2018-05-09T10:06:30.338Z,2323.13
2018-05-09T10:07:30.366Z,2306.25
2018-05-09T10:08:30.417Z,2390.63
2018-05-09T10:09:30.471Z,2424.38
2018-05-09T10:10:30.550Z,2452.50
2018-05-09T10:11:30.621Z,2486.25
2018-05-09T10:12:30.636Z,2548.13
2018-05-09T10:13:30.688Z,2593.13
2018-05-09T10:14:30.744Z,2733.75
2018-05-09T10:15:30.796Z,2874.38
2018-05-09T10:16:30.885Z,2970.00
2018-05-09T10:17:30.912Z,3003.75
2018-05-09T10:18:30.964Z,3054.38
2018-05-09T10:19:31.019Z,3138.75
2018-05-09T10:20:31.076Z,3138.75
2018-05-09T10:21:31.168Z,3217.50
2018-05-09T10:22:31.184Z,3240.00
2018-05-09T10:23:31.243Z,3256.88
2018-05-09T10:24:31.299Z,3245.63
2018-05-09T10:25:31.350Z,3251.25
2018-05-09T10:26:31.432Z,3178.13
2018-05-09T10:27:31.484Z,3144.38
2018-05-09T10:28:31.518Z,3060.00
2018-05-09T10:29:31.572Z,2986.88
2018-05-09T10:30:31.628Z,2919.38
2018-05-09T10:31:31.704Z,2896.88
2018-05-09T10:32:31.765Z,2840.63
2018-05-09T10:33:31.792Z,2756.25
2018-05-09T10:34:31.853Z,2716.88
2018-05-09T10:35:31.912Z,2621.25
2018-05-09T10:36:31.956Z,2520.00
2018-05-09T10:37:32.038Z,2435.63
2018-05-09T10:38:32.066Z,2289.38
2018-05-09T10:39:32.121Z,2238.75
2018-05-09T10:40:32.194Z,2137.50
2018-05-09T10:41:32.234Z,2064.38
2018-05-09T10:42:32.320Z,1951.88
2018-05-09T10:43:32.368Z,1276.88
2018-05-09T10:44:32.395Z,922.50
2018-05-09T10:45:32.464Z,978.75
2018-05-09T10:46:32.506Z,1198.13
2018-05-09T10:47:32.637Z,2131.88
2018-05-09T10:48:32.613Z,1771.88
2018-05-09T10:49:32.671Z,1248.75
2018-05-09T10:50:32.725Z,956.25
2018-05-09T10:51:32.786Z,928.13
2018-05-09T10:52:32.863Z,928.13
2018-05-09T10:53:32.889Z,939.38
2018-05-09T10:54:32.969Z,967.50
2018-05-09T10:55:33.000Z,916.88
2018-05-09T10:56:33.053Z,990.00
2018-05-09T10:57:33.107Z,1001.25
2018-05-09T10:58:33.187Z,905.63
2018-05-09T10:59:33.253Z,939.38
2018-05-09T11:00:33.269Z,1006.88
2018-05-09T11:01:33.323Z,2115.00
2018-05-09T11:02:33.377Z,1693.13
2018-05-09T11:03:33.430Z,2452.50
2018-05-09T11:04:33.525Z,2441.25
2018-05-09T11:05:33.540Z,2424.38
2018-05-09T11:06:33.606Z,2272.50
2018-05-09T11:07:33.648Z,1479.38
2018-05-09T11:08:33.708Z,1648.13
2018-05-09T11:09:33.781Z,2536.88
2018-05-09T11:10:33.976Z,2536.88
2018-05-09T11:11:33.867Z,2593.13
2018-05-09T11:12:33.921Z,2626.88
2018-05-09T11:13:33.983Z,2666.25
2018-05-09T11:14:34.030Z,2716.88
2018-05-09T11:15:34.111Z,2756.25
2018-05-09T11:16:34.162Z,2750.63
2018-05-09T11:17:34.268Z,2818.13
2018-05-09T11:18:34.249Z,1597.50
2018-05-09T11:19:34.310Z,1771.88
2018-05-09T11:20:34.363Z,2801.25
2018-05-09T11:21:34.443Z,2801.25
2018-05-09T11:22:34.471Z,2587.50
2018-05-09T11:23:34.528Z,2306.25
2018-05-09T11:24:34.643Z,2835.00
2018-05-09T11:25:34.633Z,3026.25
2018-05-09T11:26:34.725Z,3088.13
2018-05-09T11:27:34.745Z,3138.75
2018-05-09T11:28:34.803Z,3178.13
2018-05-09T11:29:34.865Z,3307.50
2018-05-09T11:30:34.913Z,3121.88
2018-05-09T11:31:34.989Z,1800.00
2018-05-09T11:32:35.026Z,1186.88
2018-05-09T11:33:35.076Z,3054.38
2018-05-09T11:34:35.134Z,3335.63
2018-05-09T11:35:35.187Z,3318.75
2018-05-09T11:36:35.268Z,3172.50
2018-05-09T11:37:35.325Z,2812.50
2018-05-09T11:38:35.357Z,3195.00
2018-05-09T11:39:35.414Z,3605.63
2018-05-09T11:40:35.472Z,3611.25
2018-05-09T11:41:35.548Z,3549.38
2018-05-09T11:42:35.590Z,3504.38
2018-05-09T11:43:35.660Z,3453.75
2018-05-09T11:44:35.699Z,3414.38
2018-05-09T11:45:35.747Z,3358.13
2018-05-09T11:46:35.816Z,3341.25
2018-05-09T11:47:35.859Z,3341.25
2018-05-09T11:48:35.939Z,3285.00
2018-05-09T11:49:35.970Z,3256.88
2018-05-09T11:50:36.027Z,3211.88
2018-05-09T11:51:36.083Z,3211.88
2018-05-09T11:52:36.143Z,3183.75
2018-05-09T11:53:36.217Z,3172.50
2018-05-09T11:54:36.250Z,3144.38
2018-05-09T11:55:36.305Z,3105.00
2018-05-09T11:56:36.362Z,2992.50
2018-05-09T11:57:36.422Z,2649.38
2018-05-09T11:58:36.513Z,2171.25
2018-05-09T11:59:36.525Z,2401.88
2018-05-09T12:00:36.583Z,2559.38
2018-05-09T12:01:36.637Z,2311.88
2018-05-09T12:02:36.701Z,2233.13
2018-05-09T12:03:36.773Z,1963.13
2018-05-09T12:04:36.833Z,2160.00
2018-05-09T12:05:36.872Z,2385.00
2018-05-09T12:06:36.917Z,2677.50
2018-05-09T12:07:36.976Z,2733.75
2018-05-09T12:08:37.030Z,2458.13
2018-05-09T12:09:37.113Z,2621.25
2018-05-09T12:10:37.162Z,2430.00
2018-05-09T12:11:37.198Z,2604.38
2018-05-09T12:12:37.259Z,2874.38
2018-05-09T12:13:37.315Z,2677.50
2018-05-09T12:14:37.393Z,1282.50
2018-05-09T12:15:37.428Z,652.50
2018-05-09T12:16:37.483Z,1215.00
2018-05-09T12:17:37.539Z,2728.13
2018-05-09T12:18:37.594Z,2424.38
2018-05-09T12:19:37.672Z,2351.25
2018-05-09T12:20:37.729Z,2446.88
2018-05-09T12:21:37.761Z,2413.13
2018-05-09T12:22:37.818Z,2491.88
2018-05-09T12:23:37.874Z,2576.25
2018-05-09T12:24:38.027Z,2643.75
2018-05-09T12:25:37.985Z,2660.63
2018-05-09T12:26:38.038Z,2655.00
2018-05-09T12:27:38.098Z,2660.63
2018-05-09T12:28:38.148Z,2711.25
2018-05-09T12:29:38.237Z,2683.13
2018-05-09T12:30:38.263Z,2666.25
2018-05-09T12:31:38.332Z,2677.50
2018-05-09T12:32:38.371Z,2722.50
2018-05-09T12:33:38.428Z,2733.75
2018-05-09T12:34:38.515Z,2722.50
2018-05-09T12:35:38.538Z,2728.13